createdAt,value
2018-03-22T00:02:13.724Z,16.93
2018-03-22T00:04:41.264Z,18.77
2018-03-22T00:07:08.741Z,16.77
2018-03-22T00:09:36.262Z,15.77
2018-03-22T00:12:03.755Z,15.43
2018-03-22T00:14:31.267Z,13.83
2018-03-22T00:16:58.765Z,21.77
2018-03-22T00:19:26.293Z,18.10
2018-03-22T00:21:53.788Z,18.33
2018-03-22T00:24:21.255Z,17.47
2018-03-22T00:26:48.766Z,16.53
2018-03-22T00:29:16.264Z,14.70
2018-03-22T00:31:43.740Z,17.37
2018-03-22T00:34:11.211Z,20.53
2018-03-22T00:36:39.838Z,18.63
2018-03-22T00:39:07.316Z,13.43
2018-03-22T00:41:34.816Z,13.90
2018-03-22T00:44:03.051Z,14.00
2018-03-22T00:46:30.573Z,13.87
2018-03-22T00:48:58.057Z,16.60
2018-03-22T00:51:25.555Z,16.90
2018-03-22T00:53:53.793Z,13.97
2018-03-22T00:56:21.295Z,13.30
2018-03-22T00:58:49.549Z,21.43
2018-03-22T01:01:17.044Z,22.63
2018-03-22T01:03:44.506Z,20.27
2018-03-22T01:06:12.026Z,22.30
2018-03-22T01:08:39.518Z,20.87
2018-03-22T01:11:07.106Z,17.63
2018-03-22T01:13:34.574Z,17.57
2018-03-22T01:16:02.082Z,13.57
2018-03-22T01:18:30.319Z,13.20
2018-03-22T01:20:57.834Z,11.93
2018-03-22T01:23:25.407Z,11.50
2018-03-22T01:25:52.938Z,10.80
2018-03-22T01:28:21.190Z,13.50
2018-03-22T01:30:48.679Z,12.17
2018-03-22T01:33:16.141Z,9.53
2018-03-22T01:35:43.639Z,9.73
2018-03-22T01:38:11.125Z,9.37
2018-03-22T01:40:38.748Z,9.73
2018-03-22T01:43:06.229Z,13.63
2018-03-22T01:45:33.692Z,9.27
2018-03-22T01:48:01.198Z,11.07
2018-03-22T01:50:28.686Z,12.33
2018-03-22T01:53:08.669Z,8.83
2018-03-22T01:55:36.165Z,11.47
2018-03-22T01:58:03.668Z,11.67
2018-03-22T02:00:31.283Z,12.97
2018-03-22T02:02:58.763Z,9.53
2018-03-22T02:05:26.269Z,10.67
2018-03-22T02:07:54.555Z,12.77
2018-03-22T02:10:22.797Z,10.90
2018-03-22T02:12:50.295Z,10.50
2018-03-22T02:15:17.755Z,9.97
2018-03-22T02:17:45.253Z,8.33
2018-03-22T02:20:12.888Z,11.47
2018-03-22T02:22:40.390Z,10.10
2018-03-22T02:25:07.869Z,10.53
2018-03-22T02:27:36.139Z,8.40
2018-03-22T02:30:03.634Z,9.47
2018-03-22T02:32:31.138Z,8.83
2018-03-22T02:34:58.651Z,10.50
2018-03-22T02:37:26.253Z,10.63
2018-03-22T02:39:53.725Z,11.00
2018-03-22T02:42:21.196Z,11.30
2018-03-22T02:44:49.475Z,8.17
2018-03-22T02:47:17.729Z,9.93
2018-03-22T02:49:45.238Z,12.33
2018-03-22T02:52:12.709Z,12.63
2018-03-22T02:54:40.214Z,10.93
2018-03-22T02:57:08.481Z,10.93
2018-03-22T02:59:36.163Z,9.07
2018-03-22T03:02:03.685Z,14.47
2018-03-22T03:04:31.176Z,13.80
2018-03-22T03:06:59.452Z,12.23
2018-03-22T03:09:27.720Z,11.47
2018-03-22T03:11:55.192Z,11.43
2018-03-22T03:14:23.461Z,9.17
2018-03-22T03:16:51.721Z,9.90
2018-03-22T03:19:19.336Z,8.57
2018-03-22T03:21:46.813Z,12.97
2018-03-22T03:24:14.314Z,12.43
2018-03-22T03:26:42.627Z,11.37
2018-03-22T03:29:10.122Z,13.03
2018-03-22T03:31:37.637Z,8.83
2018-03-22T03:34:05.140Z,10.17
2018-03-22T03:36:32.617Z,9.97
2018-03-22T03:39:00.321Z,9.90
2018-03-22T03:41:27.841Z,8.30
2018-03-22T03:43:55.287Z,8.47
2018-03-22T03:46:22.796Z,9.83
2018-03-22T03:48:50.317Z,9.43
2018-03-22T03:51:17.809Z,9.70
2018-03-22T03:53:45.274Z,11.60
2018-03-22T03:56:12.846Z,11.50
2018-03-22T03:58:41.104Z,12.97
2018-03-22T04:01:08.631Z,22.83
2018-03-22T04:03:36.859Z,18.77
2018-03-22T04:06:04.373Z,15.03
2018-03-22T04:08:32.611Z,19.13
2018-03-22T04:11:00.892Z,17.10
2018-03-22T04:13:28.359Z,16.27
2018-03-22T04:15:56.049Z,14.07
2018-03-22T04:18:24.300Z,18.77
2018-03-22T04:20:51.782Z,13.90
2018-03-22T04:23:20.048Z,9.77
2018-03-22T04:25:48.287Z,15.73
2018-03-22T04:28:15.801Z,10.33
2018-03-22T04:30:43.281Z,11.43
2018-03-22T04:33:10.786Z,17.40
2018-03-22T04:35:38.288Z,17.33
2018-03-22T04:38:05.845Z,11.13
2018-03-22T04:40:33.329Z,11.33
2018-03-22T04:43:00.841Z,13.60
2018-03-22T04:45:29.080Z,11.70
2018-03-22T04:47:56.586Z,15.53
2018-03-22T04:50:24.052Z,11.93
2018-03-22T04:52:51.593Z,13.80
2018-03-22T04:55:19.054Z,9.60
2018-03-22T04:57:46.564Z,17.27
2018-03-22T05:00:14.057Z,10.23
2018-03-22T05:02:42.333Z,10.73
2018-03-22T05:05:09.837Z,12.90
2018-03-22T05:07:37.378Z,15.03
2018-03-22T05:10:04.853Z,10.67
2018-03-22T05:12:32.341Z,14.70
2018-03-22T05:15:00.295Z,19.80
2018-03-22T05:17:27.786Z,14.80
2018-03-22T05:19:56.067Z,10.53
2018-03-22T05:22:24.316Z,11.70
2018-03-22T05:24:52.613Z,14.73
2018-03-22T05:27:20.870Z,16.30
2018-03-22T05:29:48.371Z,14.97
2018-03-22T05:32:15.885Z,11.33
2018-03-22T05:34:43.390Z,12.40
2018-03-22T05:37:10.860Z,15.90
2018-03-22T05:39:38.373Z,12.13
2018-03-22T05:42:05.874Z,14.47
2018-03-22T05:44:33.375Z,17.37
2018-03-22T05:47:00.845Z,14.93
2018-03-22T05:49:28.343Z,11.87
2018-03-22T05:51:55.827Z,15.17
2018-03-22T05:54:24.116Z,15.40
2018-03-22T05:56:51.598Z,11.87
2018-03-22T05:59:19.116Z,12.40
2018-03-22T06:01:46.627Z,13.10
2018-03-22T06:04:14.913Z,21.87
2018-03-22T06:06:43.159Z,15.87
2018-03-22T06:09:10.661Z,11.83
2018-03-22T06:11:38.176Z,12.77
2018-03-22T06:14:05.677Z,18.03
2018-03-22T06:16:33.193Z,17.93
2018-03-22T06:19:00.708Z,15.30
2018-03-22T06:21:28.197Z,15.37
2018-03-22T06:23:56.486Z,13.87
2018-03-22T06:26:23.954Z,10.63
2018-03-22T06:28:52.244Z,19.00
2018-03-22T06:31:20.500Z,20.17
2018-03-22T06:33:48.002Z,15.53
2018-03-22T06:36:15.472Z,16.90
2018-03-22T06:38:42.988Z,9.20
2018-03-22T06:41:11.229Z,14.60
2018-03-22T06:43:38.849Z,14.57
2018-03-22T06:46:06.327Z,17.67
2018-03-22T06:48:33.799Z,20.87
2018-03-22T06:51:02.082Z,21.10
2018-03-22T06:53:29.590Z,16.77
2018-03-22T06:55:57.853Z,15.10
2018-03-22T06:58:26.101Z,34.87
2018-03-22T07:00:53.607Z,67.23
2018-03-22T07:03:21.083Z,55.20
2018-03-22T07:05:48.576Z,33.93
2018-03-22T07:08:16.054Z,20.93
2018-03-22T07:10:44.326Z,21.83
2018-03-22T07:13:12.631Z,19.50
2018-03-22T07:15:40.111Z,20.73
2018-03-22T07:18:07.630Z,26.93
2018-03-22T07:20:35.867Z,22.67
2018-03-22T07:23:03.364Z,24.40
2018-03-22T07:25:31.615Z,18.67
2018-03-22T07:27:59.152Z,27.87
2018-03-22T07:30:26.660Z,30.83
2018-03-22T07:32:55.293Z,24.57
2018-03-22T07:35:22.755Z,24.63
2018-03-22T07:37:50.267Z,20.77
2018-03-22T07:40:17.757Z,22.93
2018-03-22T07:42:50.850Z,15.37
2018-03-22T07:45:18.324Z,18.70
2018-03-22T07:47:45.818Z,20.13
2018-03-22T07:50:14.109Z,17.23
2018-03-22T07:52:41.581Z,15.77
2018-03-22T07:55:09.094Z,20.63
2018-03-22T07:57:36.570Z,16.90
2018-03-22T08:00:04.829Z,23.77
2018-03-22T08:02:32.314Z,17.07
2018-03-22T08:04:59.827Z,19.83
2018-03-22T08:07:27.310Z,18.77
2018-03-22T08:09:55.578Z,22.70
2018-03-22T08:12:23.088Z,15.53
2018-03-22T08:14:51.314Z,17.13
2018-03-22T08:17:18.800Z,17.73
2018-03-22T08:19:46.302Z,17.30
2018-03-22T08:22:13.777Z,18.43
2018-03-22T08:24:41.268Z,22.93
2018-03-22T08:27:08.728Z,20.17
2018-03-22T08:29:36.263Z,18.63
2018-03-22T08:32:03.738Z,16.07
2018-03-22T08:34:32.011Z,17.50
2018-03-22T08:37:00.247Z,17.20
2018-03-22T08:39:27.738Z,18.13
2018-03-22T08:41:55.999Z,17.93
2018-03-22T08:44:23.520Z,20.43
2018-03-22T08:46:51.003Z,17.93
2018-03-22T08:49:19.378Z,16.37
2018-03-22T08:51:46.852Z,16.37
2018-03-22T08:54:14.358Z,15.80
2018-03-22T08:56:41.840Z,14.63
2018-03-22T08:59:09.331Z,18.07
2018-03-22T09:01:37.118Z,19.17
2018-03-22T09:04:05.360Z,19.60
2018-03-22T09:06:32.883Z,18.47
2018-03-22T09:09:00.365Z,19.83
2018-03-22T09:11:27.879Z,25.20
2018-03-22T09:13:55.362Z,22.57
2018-03-22T09:16:22.871Z,25.27
2018-03-22T09:18:51.108Z,25.23
2018-03-22T09:21:18.646Z,19.27
2018-03-22T09:23:46.123Z,24.80
2018-03-22T09:26:14.384Z,25.07
2018-03-22T09:28:41.897Z,30.53
2018-03-22T09:31:10.181Z,23.97
2018-03-22T09:33:38.429Z,31.27
2018-03-22T09:36:05.953Z,32.10
2018-03-22T09:38:33.454Z,32.73
2018-03-22T09:41:01.123Z,35.30
2018-03-22T09:43:29.376Z,28.63
2018-03-22T09:45:56.860Z,37.70
2018-03-22T09:48:25.181Z,31.47
2018-03-22T09:50:52.663Z,40.43
2018-03-22T09:53:20.190Z,35.23
2018-03-22T09:55:47.671Z,37.27
2018-03-22T09:58:15.172Z,40.40
2018-03-22T10:00:45.659Z,45.67
2018-03-22T10:03:13.195Z,49.10
2018-03-22T10:05:40.673Z,51.17
2018-03-22T10:08:08.186Z,52.10
2018-03-22T10:10:35.660Z,40.93
2018-03-22T10:13:03.134Z,46.40
2018-03-22T10:15:30.645Z,50.53
2018-03-22T10:17:58.115Z,42.27
2018-03-22T10:20:26.399Z,47.10
2018-03-22T10:22:53.880Z,55.10
2018-03-22T10:25:21.380Z,52.37
2018-03-22T10:27:48.854Z,50.03
2018-03-22T10:30:17.140Z,44.60
2018-03-22T10:32:45.399Z,47.57
2018-03-22T10:35:12.927Z,46.30
2018-03-22T10:37:40.414Z,45.93
2018-03-22T10:40:08.026Z,42.50
2018-03-22T10:42:35.526Z,45.37
2018-03-22T10:45:03.033Z,48.40
2018-03-22T10:47:30.519Z,44.63
2018-03-22T10:49:58.052Z,47.93
2018-03-22T10:52:25.533Z,39.70
2018-03-22T10:54:53.051Z,37.97
2018-03-22T10:57:21.334Z,42.30
2018-03-22T10:59:48.828Z,38.80
2018-03-22T11:02:22.033Z,37.07
2018-03-22T11:04:49.539Z,34.97
2018-03-22T11:07:16.999Z,51.35
2018-03-22T11:09:44.507Z,45.53
2018-03-22T11:12:11.987Z,46.93
2018-03-22T11:14:40.252Z,42.03
2018-03-22T11:17:07.738Z,36.77
2018-03-22T11:19:35.268Z,33.93
2018-03-22T11:22:02.741Z,39.87
2018-03-22T11:24:31.021Z,42.90
2018-03-22T11:26:59.262Z,45.60
2018-03-22T11:29:26.766Z,49.30
2018-03-22T11:31:54.252Z,50.47
2018-03-22T11:34:21.770Z,39.40
2018-03-22T11:36:50.026Z,57.73
2018-03-22T11:39:17.524Z,56.80
2018-03-22T11:41:45.007Z,56.43
2018-03-22T11:44:12.510Z,52.97
2018-03-22T11:46:39.980Z,64.60
2018-03-22T11:49:08.266Z,67.43
2018-03-22T11:51:35.754Z,48.07
2018-03-22T11:54:03.299Z,77.60
2018-03-22T11:56:30.774Z,74.37
2018-03-22T11:58:58.280Z,50.20
2018-03-22T12:01:25.762Z,45.97
2018-03-22T12:03:53.284Z,44.80
2018-03-22T12:06:20.763Z,57.23
2018-03-22T12:08:49.033Z,55.73
2018-03-22T12:11:17.282Z,46.87
2018-03-22T12:13:44.810Z,49.90
2018-03-22T12:16:12.287Z,61.60
2018-03-22T12:18:39.791Z,66.13
2018-03-22T12:21:08.040Z,43.27
2018-03-22T12:23:35.574Z,46.77
2018-03-22T12:26:03.085Z,33.97
2018-03-22T12:28:31.355Z,35.50
2018-03-22T12:30:59.607Z,30.03
2018-03-22T12:33:27.137Z,34.60
2018-03-22T12:35:54.614Z,29.00
2018-03-22T12:38:22.111Z,31.40
2018-03-22T12:40:50.347Z,41.27
2018-03-22T12:43:17.873Z,39.53
2018-03-22T12:45:45.352Z,41.47
2018-03-22T12:48:13.614Z,39.70
2018-03-22T12:50:41.096Z,34.63
2018-03-22T12:53:08.622Z,30.43
2018-03-22T12:55:36.134Z,35.27
2018-03-22T12:58:03.606Z,31.63
2018-03-22T13:00:31.880Z,39.40
2018-03-22T13:03:00.120Z,34.03
2018-03-22T13:05:27.625Z,38.57
2018-03-22T13:07:55.865Z,39.80
2018-03-22T13:10:23.395Z,31.93
2018-03-22T13:12:50.950Z,41.23
2018-03-22T13:15:18.447Z,60.93
2018-03-22T13:17:45.934Z,34.40
2018-03-22T13:20:14.206Z,33.47
2018-03-22T13:22:42.449Z,32.70
2018-03-22T13:25:09.938Z,33.73
2018-03-22T13:27:38.198Z,39.03
2018-03-22T13:30:05.701Z,31.47
2018-03-22T13:32:33.172Z,34.60
2018-03-22T13:35:00.889Z,43.33
2018-03-22T13:37:29.156Z,36.40
2018-03-22T13:39:56.641Z,34.23
2018-03-22T13:42:24.275Z,32.93
2018-03-22T13:44:51.752Z,44.57
2018-03-22T13:47:20.055Z,35.27
2018-03-22T13:49:47.588Z,29.17
2018-03-22T13:52:15.097Z,36.93
2018-03-22T13:54:42.586Z,33.53
2018-03-22T13:57:10.867Z,25.63
2018-03-22T13:59:39.156Z,33.75
2018-03-22T14:02:07.458Z,29.13
2018-03-22T14:04:34.936Z,35.80
2018-03-22T14:07:02.454Z,29.10
2018-03-22T14:09:29.938Z,32.33
2018-03-22T14:11:57.475Z,35.23
2018-03-22T14:14:24.964Z,35.17
2018-03-22T14:16:52.533Z,35.13
2018-03-22T14:19:20.046Z,27.40
2018-03-22T14:21:47.581Z,28.57
2018-03-22T14:24:15.836Z,32.50
2018-03-22T14:26:43.349Z,34.00
2018-03-22T14:29:10.835Z,30.10
2018-03-22T14:31:38.376Z,30.57
2018-03-22T14:34:05.865Z,35.70
2018-03-22T14:36:33.367Z,30.07
2018-03-22T14:39:01.626Z,28.03
2018-03-22T14:41:29.947Z,27.70
2018-03-22T14:43:57.444Z,25.13
2018-03-22T14:46:24.943Z,26.53
2018-03-22T14:48:52.444Z,33.67
2018-03-22T14:51:19.991Z,29.87
2018-03-22T14:53:47.500Z,37.83
2018-03-22T14:56:15.056Z,23.97
2018-03-22T14:58:43.336Z,34.77
2018-03-22T15:01:11.609Z,33.97
2018-03-22T15:03:39.145Z,24.83
2018-03-22T15:06:06.636Z,40.37
2018-03-22T15:08:34.899Z,33.47
2018-03-22T15:11:02.394Z,33.53
2018-03-22T15:13:29.981Z,36.50
2018-03-22T15:15:57.467Z,35.50
2018-03-22T15:18:24.970Z,34.10
2018-03-22T15:20:52.531Z,47.50
2018-03-22T15:23:20.802Z,32.77
2018-03-22T15:25:48.275Z,41.77
2018-03-22T15:28:15.797Z,32.77
2018-03-22T15:30:44.040Z,38.43
2018-03-22T15:33:11.548Z,41.00
2018-03-22T15:35:39.051Z,45.87
2018-03-22T15:38:07.157Z,33.80
2018-03-22T15:40:35.408Z,30.70
2018-03-22T15:43:03.311Z,34.70
2018-03-22T15:45:31.162Z,29.90
2018-03-22T15:47:59.422Z,28.80
2018-03-22T15:50:26.937Z,46.00
2018-03-22T15:52:54.419Z,40.43
2018-03-22T15:55:21.931Z,32.70
2018-03-22T15:57:49.431Z,28.50
2018-03-22T16:00:17.708Z,25.13
2018-03-22T16:02:45.174Z,27.87
2018-03-22T16:05:12.722Z,31.60
2018-03-22T16:07:40.238Z,28.97
2018-03-22T16:10:07.734Z,27.03
2018-03-22T16:12:35.242Z,37.67
2018-03-22T16:15:03.533Z,40.50
2018-03-22T16:17:31.024Z,45.37
2018-03-22T16:19:58.520Z,57.70
2018-03-22T16:22:26.011Z,39.17
2018-03-22T16:24:53.540Z,59.27
2018-03-22T16:27:21.060Z,55.50
2018-03-22T16:29:48.598Z,40.43
2018-03-22T16:32:16.098Z,60.90
2018-03-22T16:34:43.662Z,48.27
2018-03-22T16:37:11.194Z,45.47
2018-03-22T16:39:38.711Z,46.67
2018-03-22T16:42:06.980Z,55.57
2018-03-22T16:44:35.398Z,59.43
2018-03-22T16:47:03.411Z,48.40
2018-03-22T16:49:30.927Z,60.33
2018-03-22T16:51:58.448Z,61.80
2018-03-22T16:54:26.710Z,44.10
2018-03-22T16:56:54.303Z,46.43
2018-03-22T16:59:21.793Z,46.57
2018-03-22T17:01:49.351Z,50.20
2018-03-22T17:04:16.835Z,27.80
2018-03-22T17:06:44.376Z,31.70
2018-03-22T17:09:11.874Z,25.03
2018-03-22T17:11:40.182Z,30.20
2018-03-22T17:14:07.672Z,30.70
2018-03-22T17:16:36.116Z,37.20
2018-03-22T17:19:03.613Z,39.73
2018-03-22T17:21:31.158Z,40.80
2018-03-22T17:23:58.651Z,38.77
2018-03-22T17:26:26.987Z,31.07
2018-03-22T17:28:54.466Z,27.43
2018-03-22T17:31:21.969Z,55.23
2018-03-22T17:33:49.483Z,40.87
2018-03-22T17:36:16.990Z,42.73
2018-03-22T17:38:44.528Z,51.50
2018-03-22T17:41:12.075Z,46.43
2018-03-22T17:43:39.592Z,42.23
2018-03-22T17:46:07.135Z,59.00
2018-03-22T17:48:35.395Z,56.37
2018-03-22T17:51:03.656Z,53.43
2018-03-22T17:53:31.968Z,51.03
2018-03-22T17:55:59.487Z,63.77
2018-03-22T17:58:27.782Z,42.27
2018-03-22T18:00:55.738Z,41.17
2018-03-22T18:03:24.033Z,55.03
2018-03-22T18:05:52.286Z,54.50
2018-03-22T18:08:19.889Z,71.73
2018-03-22T18:10:47.395Z,52.13
2018-03-22T18:13:14.929Z,47.77
2018-03-22T18:15:42.424Z,45.03
2018-03-22T18:18:09.942Z,77.57
2018-03-22T18:20:37.441Z,54.70
2018-03-22T18:23:04.952Z,76.50
2018-03-22T18:25:32.439Z,71.00
2018-03-22T18:27:59.968Z,70.57
2018-03-22T18:30:27.604Z,52.30
2018-03-22T18:32:55.153Z,71.73
2018-03-22T18:35:22.760Z,56.53
2018-03-22T18:37:50.381Z,60.03
2018-03-22T18:40:17.905Z,59.77
2018-03-22T18:42:45.403Z,61.07
2018-03-22T18:45:12.987Z,58.47
2018-03-22T18:47:40.483Z,85.40
2018-03-22T18:50:08.009Z,87.13
2018-03-22T18:52:35.526Z,95.97
2018-03-22T18:55:03.827Z,74.30
2018-03-22T18:57:31.336Z,73.27
2018-03-22T18:59:58.871Z,66.73
2018-03-22T19:02:26.382Z,59.33
2018-03-22T19:04:54.659Z,59.23
2018-03-22T19:07:22.909Z,60.17
2018-03-22T19:09:50.513Z,72.17
2018-03-22T19:12:18.024Z,57.07
2018-03-22T19:14:45.636Z,69.20
2018-03-22T19:17:13.135Z,66.80
2018-03-22T19:19:41.462Z,59.23
2018-03-22T19:22:09.028Z,71.63
2018-03-22T19:24:36.648Z,81.47
2018-03-22T19:27:04.992Z,99.20
2018-03-22T19:29:32.510Z,68.97
2018-03-22T19:32:00.010Z,62.00
2018-03-22T19:34:29.002Z,60.43
2018-03-22T19:36:56.542Z,83.27
2018-03-22T19:39:24.831Z,51.03
2018-03-22T19:41:52.346Z,71.03
2018-03-22T19:44:20.947Z,98.27
2018-03-22T19:46:48.442Z,77.63
2018-03-22T19:49:15.956Z,94.03
2018-03-22T19:51:43.522Z,58.63
2018-03-22T19:54:11.026Z,65.30
2018-03-22T19:56:38.803Z,61.90
2018-03-22T19:59:06.171Z,55.50
2018-03-22T20:01:34.481Z,64.23
2018-03-22T20:04:01.987Z,82.43
2018-03-22T20:06:29.570Z,64.97
2018-03-22T20:08:57.885Z,89.10
2018-03-22T20:11:25.751Z,58.53
2018-03-22T20:13:53.255Z,67.73
2018-03-22T20:16:20.774Z,70.43
2018-03-22T20:18:48.295Z,96.83
2018-03-22T20:21:16.600Z,72.37
2018-03-22T20:23:44.101Z,62.10
2018-03-22T20:26:11.644Z,54.87
2018-03-22T20:28:39.175Z,57.90
2018-03-22T20:31:06.723Z,55.53
2018-03-22T20:33:34.243Z,70.47
2018-03-22T20:36:01.937Z,67.17
2018-03-22T20:38:30.270Z,65.53
2018-03-22T20:40:57.772Z,61.73
2018-03-22T20:43:25.403Z,84.30
2018-03-22T20:45:52.900Z,64.17
2018-03-22T20:48:20.440Z,72.77
2018-03-22T20:50:48.696Z,72.37
2018-03-22T20:53:16.320Z,71.57
2018-03-22T20:55:43.808Z,71.80
2018-03-22T20:58:11.415Z,73.30
2018-03-22T21:00:38.910Z,81.53
2018-03-22T21:03:06.422Z,74.93
2018-03-22T21:05:34.707Z,77.53
2018-03-22T21:08:02.215Z,53.00
2018-03-22T21:10:29.733Z,86.60
2018-03-22T21:12:57.243Z,63.47
2018-03-22T21:15:24.771Z,54.30
2018-03-22T21:17:52.270Z,60.70
2018-03-22T21:20:19.878Z,52.07
2018-03-22T21:22:47.392Z,71.27
2018-03-22T21:25:15.718Z,61.90
2018-03-22T21:27:43.223Z,58.10
2018-03-22T21:30:11.540Z,56.97
2018-03-22T21:32:39.044Z,69.27
2018-03-22T21:35:06.567Z,62.27
2018-03-22T21:37:34.078Z,55.40
2018-03-22T21:40:02.433Z,62.93
2018-03-22T21:42:29.934Z,91.63
2018-03-22T21:44:58.226Z,68.40
2018-03-22T21:47:34.786Z,91.83
2018-03-22T21:50:02.301Z,68.40
2018-03-22T21:52:41.801Z,62.70
2018-03-22T21:55:09.359Z,80.43
2018-03-22T21:57:36.919Z,72.63
2018-03-22T22:00:04.455Z,70.10
2018-03-22T22:02:32.717Z,62.23
2018-03-22T22:05:01.015Z,69.47
2018-03-22T22:07:29.279Z,70.23
2018-03-22T22:09:57.562Z,75.20
2018-03-22T22:12:25.850Z,83.93
2018-03-22T22:14:53.360Z,68.97
2018-03-22T22:17:20.873Z,74.73
2018-03-22T22:19:48.396Z,77.17
2018-03-22T22:22:16.675Z,73.73
2018-03-22T22:24:45.011Z,87.53
2018-03-22T22:27:12.536Z,64.90
2018-03-22T22:29:40.075Z,91.60
2018-03-22T22:32:08.389Z,73.77
2018-03-22T22:34:35.878Z,84.13
2018-03-22T22:37:03.400Z,76.93
2018-03-22T22:39:30.924Z,58.50
2018-03-22T22:41:59.236Z,70.83
2018-03-22T22:44:26.735Z,89.00
2018-03-22T22:46:54.358Z,55.90
2018-03-22T22:49:21.850Z,77.33
2018-03-22T22:51:49.403Z,74.60
2018-03-22T22:54:16.907Z,74.43
2018-03-22T22:56:45.220Z,62.87
2018-03-22T22:59:12.711Z,76.30
2018-03-22T23:01:40.226Z,82.60
2018-03-22T23:04:07.782Z,82.00
2018-03-22T23:06:35.309Z,77.33
2018-03-22T23:09:03.568Z,72.93
2018-03-22T23:11:31.115Z,84.03
2018-03-22T23:13:58.605Z,83.60
2018-03-22T23:16:26.892Z,92.90
2018-03-22T23:18:54.394Z,100.33
2018-03-22T23:21:21.918Z,92.97
2018-03-22T23:23:49.408Z,71.47
2018-03-22T23:26:16.915Z,88.87
2018-03-22T23:28:45.170Z,88.33
2018-03-22T23:31:12.683Z,73.47
2018-03-22T23:33:40.269Z,75.60
2018-03-22T23:36:07.913Z,80.30
2018-03-22T23:38:35.393Z,74.77
2018-03-22T23:41:02.889Z,75.67
2018-03-22T23:43:31.179Z,76.80
2018-03-22T23:45:58.680Z,71.70
2018-03-22T23:48:26.207Z,100.20
2018-03-22T23:50:53.694Z,70.77
2018-03-22T23:53:21.223Z,61.17
2018-03-22T23:55:48.746Z,74.00
2018-03-22T23:58:17.060Z,76.93
